sensor_id;sensor_type;location;lat;lon;timestamp;temperature;humidity
20432;DHT22;10375;49.136;10.366;2023-07-29T00:01:40;16.50;99.90
20432;DHT22;10375;49.136;10.366;2023-07-29T00:04:08;16.50;99.90
20432;DHT22;10375;49.136;10.366;2023-07-29T00:06:36;16.60;99.90
20432;DHT22;10375;49.136;10.366;2023-07-29T00:09:03;16.60;99.90
20432;DHT22;10375;49.136;10.366;2023-07-29T00:11:30;16.70;99.90
20432;DHT22;10375;49.136;10.366;2023-07-29T00:14:03;16.70;99.90
20432;DHT22;10375;49.136;10.366;2023-07-29T00:16:30;16.80;99.90
20432;DHT22;10375;49.136;10.366;2023-07-29T00:18:58;16.80;99.90
20432;DHT22;10375;49.136;10.366;2023-07-29T00:21:25;16.80;99.90
20432;DHT22;10375;49.136;10.366;2023-07-29T00:23:52;16.90;99.90
20432;DHT22;10375;49.136;10.366;2023-07-29T00:26:20;16.90;99.90
20432;DHT22;10375;49.136;10.366;2023-07-29T00:28:48;16.90;99.90
20432;DHT22;10375;49.136;10.366;2023-07-29T00:31:15;17.00;99.90
20432;DHT22;10375;49.136;10.366;2023-07-29T00:33:42;17.00;99.90
20432;DHT22;10375;49.136;10.366;2023-07-29T00:36:09;17.00;99.90
20432;DHT22;10375;49.136;10.366;2023-07-29T00:38:36;17.00;99.90
20432;DHT22;10375;49.136;10.366;2023-07-29T00:41:03;16.90;99.90
20432;DHT22;10375;49.136;10.366;2023-07-29T00:43:31;16.80;99.90
20432;DHT22;10375;49.136;10.366;2023-07-29T00:45:59;16.70;99.90
20432;DHT22;10375;49.136;10.366;2023-07-29T00:48:27;16.70;99.90
20432;DHT22;10375;49.136;10.366;2023-07-29T00:50:54;16.60;99.90
20432;DHT22;10375;49.136;10.366;2023-07-29T00:53:21;16.50;99.90
20432;DHT22;10375;49.136;10.366;2023-07-29T00:55:49;16.50;99.90
20432;DHT22;10375;49.136;10.366;2023-07-29T00:58:16;16.40;99.90
20432;DHT22;10375;49.136;10.366;2023-07-29T01:00:43;16.40;99.90
20432;DHT22;10375;49.136;10.366;2023-07-29T01:03:10;16.40;99.90
20432;DHT22;10375;49.136;10.366;2023-07-29T01:05:50;16.40;99.90
20432;DHT22;10375;49.136;10.366;2023-07-29T01:08:21;16.40;99.90
20432;DHT22;10375;49.136;10.366;2023-07-29T01:11:22;16.40;99.90
20432;DHT22;10375;49.136;10.366;2023-07-29T01:14:04;16.40;99.90
20432;DHT22;10375;49.136;10.366;2023-07-29T01:16:57;16.30;99.90
20432;DHT22;10375;49.136;10.366;2023-07-29T01:21:58;16.20;99.90
20432;DHT22;10375;49.136;10.366;2023-07-29T01:24:25;16.10;99.90
20432;DHT22;10375;49.136;10.366;2023-07-29T01:26:52;16.10;99.90
20432;DHT22;10375;49.136;10.366;2023-07-29T01:29:20;16.10;99.90
20432;DHT22;10375;49.136;10.366;2023-07-29T01:31:48;16.10;99.90
20432;DHT22;10375;49.136;10.366;2023-07-29T01:37:15;15.90;99.90
20432;DHT22;10375;49.136;10.366;2023-07-29T01:39:45;15.90;99.90
20432;DHT22;10375;49.136;10.366;2023-07-29T01:42:13;15.90;99.90
20432;DHT22;10375;49.136;10.366;2023-07-29T01:44:40;15.80;99.90
20432;DHT22;10375;49.136;10.366;2023-07-29T01:47:10;15.80;99.90
20432;DHT22;10375;49.136;10.366;2023-07-29T01:49:37;15.80;99.90
20432;DHT22;10375;49.136;10.366;2023-07-29T01:52:04;15.90;99.90
20432;DHT22;10375;49.136;10.366;2023-07-29T01:54:32;15.90;99.90
20432;DHT22;10375;49.136;10.366;2023-07-29T01:56:59;16.00;99.90
20432;DHT22;10375;49.136;10.366;2023-07-29T01:59:26;16.00;99.90
20432;DHT22;10375;49.136;10.366;2023-07-29T02:01:53;16.00;99.90
20432;DHT22;10375;49.136;10.366;2023-07-29T02:04:20;16.00;99.90
20432;DHT22;10375;49.136;10.366;2023-07-29T02:06:47;16.10;99.90
20432;DHT22;10375;49.136;10.366;2023-07-29T02:09:14;16.10;99.90
20432;DHT22;10375;49.136;10.366;2023-07-29T02:11:41;16.00;99.90
20432;DHT22;10375;49.136;10.366;2023-07-29T02:14:08;16.00;99.90
20432;DHT22;10375;49.136;10.366;2023-07-29T02:16:35;16.10;99.90
20432;DHT22;10375;49.136;10.366;2023-07-29T02:19:03;16.10;99.90
20432;DHT22;10375;49.136;10.366;2023-07-29T02:21:30;16.10;99.90
20432;DHT22;10375;49.136;10.366;2023-07-29T02:23:57;16.10;99.90
20432;DHT22;10375;49.136;10.366;2023-07-29T02:26:25;16.10;99.90
20432;DHT22;10375;49.136;10.366;2023-07-29T02:28:52;16.00;99.90
20432;DHT22;10375;49.136;10.366;2023-07-29T02:31:24;15.90;99.90
20432;DHT22;10375;49.136;10.366;2023-07-29T02:33:51;15.90;99.90
20432;DHT22;10375;49.136;10.366;2023-07-29T02:36:20;16.00;99.90
20432;DHT22;10375;49.136;10.366;2023-07-29T02:38:47;15.90;99.90
20432;DHT22;10375;49.136;10.366;2023-07-29T02:41:14;15.90;99.90
20432;DHT22;10375;49.136;10.366;2023-07-29T02:43:43;15.90;99.90
20432;DHT22;10375;49.136;10.366;2023-07-29T02:46:14;15.90;99.90
20432;DHT22;10375;49.136;10.366;2023-07-29T02:48:43;15.90;99.90
20432;DHT22;10375;49.136;10.366;2023-07-29T02:51:11;16.00;99.90
20432;DHT22;10375;49.136;10.366;2023-07-29T02:53:38;16.00;99.90
20432;DHT22;10375;49.136;10.366;2023-07-29T02:56:05;16.00;99.90
20432;DHT22;10375;49.136;10.366;2023-07-29T02:58:36;16.00;99.90
20432;DHT22;10375;49.136;10.366;2023-07-29T03:01:05;16.10;99.90
20432;DHT22;10375;49.136;10.366;2023-07-29T03:03:33;16.10;99.90
20432;DHT22;10375;49.136;10.366;2023-07-29T03:06:06;16.20;99.90
20432;DHT22;10375;49.136;10.366;2023-07-29T03:08:34;16.20;99.90
20432;DHT22;10375;49.136;10.366;2023-07-29T03:11:28;16.30;99.90
20432;DHT22;10375;49.136;10.366;2023-07-29T03:13:55;16.20;99.90
20432;DHT22;10375;49.136;10.366;2023-07-29T03:16:22;16.20;99.90
20432;DHT22;10375;49.136;10.366;2023-07-29T03:18:49;16.20;99.90
20432;DHT22;10375;49.136;10.366;2023-07-29T03:21:16;16.20;99.90
20432;DHT22;10375;49.136;10.366;2023-07-29T03:23:43;16.20;99.90
20432;DHT22;10375;49.136;10.366;2023-07-29T03:26:10;16.20;99.90
20432;DHT22;10375;49.136;10.366;2023-07-29T03:28:42;16.30;99.90
20432;DHT22;10375;49.136;10.366;2023-07-29T03:31:10;16.30;99.90
20432;DHT22;10375;49.136;10.366;2023-07-29T03:33:38;16.30;99.90
20432;DHT22;10375;49.136;10.366;2023-07-29T03:36:05;16.30;99.90
20432;DHT22;10375;49.136;10.366;2023-07-29T03:38:32;16.30;99.90
20432;DHT22;10375;49.136;10.366;2023-07-29T03:41:08;16.30;99.90
20432;DHT22;10375;49.136;10.366;2023-07-29T03:43:35;16.30;99.90
20432;DHT22;10375;49.136;10.366;2023-07-29T03:46:02;16.30;99.90
20432;DHT22;10375;49.136;10.366;2023-07-29T03:48:29;16.30;99.90
20432;DHT22;10375;49.136;10.366;2023-07-29T03:50:58;16.40;99.90
20432;DHT22;10375;49.136;10.366;2023-07-29T03:53:25;16.40;99.90
20432;DHT22;10375;49.136;10.366;2023-07-29T03:55:52;16.40;99.90
20432;DHT22;10375;49.136;10.366;2023-07-29T03:58:19;16.40;99.90
20432;DHT22;10375;49.136;10.366;2023-07-29T04:00:46;16.40;99.90
20432;DHT22;10375;49.136;10.366;2023-07-29T04:03:13;16.40;99.90
20432;DHT22;10375;49.136;10.366;2023-07-29T04:05:40;16.40;99.90
20432;DHT22;10375;49.136;10.366;2023-07-29T04:08:08;16.40;99.90
20432;DHT22;10375;49.136;10.366;2023-07-29T04:10:35;16.50;99.90
20432;DHT22;10375;49.136;10.366;2023-07-29T04:13:02;16.50;99.90
20432;DHT22;10375;49.136;10.366;2023-07-29T04:15:29;16.50;99.90
20432;DHT22;10375;49.136;10.366;2023-07-29T04:17:56;16.50;99.90
20432;DHT22;10375;49.136;10.366;2023-07-29T04:20:23;16.60;99.90
20432;DHT22;10375;49.136;10.366;2023-07-29T04:22:51;16.70;99.90
20432;DHT22;10375;49.136;10.366;2023-07-29T04:25:18;16.80;99.90
20432;DHT22;10375;49.136;10.366;2023-07-29T04:27:45;16.90;99.90
20432;DHT22;10375;49.136;10.366;2023-07-29T04:30:12;17.00;99.90
20432;DHT22;10375;49.136;10.366;2023-07-29T04:32:39;17.00;99.90
20432;DHT22;10375;49.136;10.366;2023-07-29T04:35:09;17.20;99.90
20432;DHT22;10375;49.136;10.366;2023-07-29T04:37:36;17.20;99.90
20432;DHT22;10375;49.136;10.366;2023-07-29T04:40:03;17.20;99.90
20432;DHT22;10375;49.136;10.366;2023-07-29T04:42:30;17.20;99.90
20432;DHT22;10375;49.136;10.366;2023-07-29T04:44:57;17.20;99.90
20432;DHT22;10375;49.136;10.366;2023-07-29T04:47:24;17.30;99.90
20432;DHT22;10375;49.136;10.366;2023-07-29T04:49:53;17.40;99.90
20432;DHT22;10375;49.136;10.366;2023-07-29T04:52:20;17.40;99.90
20432;DHT22;10375;49.136;10.366;2023-07-29T04:54:48;17.50;99.90
20432;DHT22;10375;49.136;10.366;2023-07-29T04:57:15;17.30;99.90
20432;DHT22;10375;49.136;10.366;2023-07-29T04:59:43;17.20;99.90
20432;DHT22;10375;49.136;10.366;2023-07-29T05:02:10;17.20;99.90
20432;DHT22;10375;49.136;10.366;2023-07-29T05:04:37;17.20;99.90
20432;DHT22;10375;49.136;10.366;2023-07-29T05:07:04;17.20;99.90
20432;DHT22;10375;49.136;10.366;2023-07-29T05:09:31;17.20;99.90
20432;DHT22;10375;49.136;10.366;2023-07-29T05:11:58;17.20;99.90
20432;DHT22;10375;49.136;10.366;2023-07-29T05:14:25;17.20;99.90
20432;DHT22;10375;49.136;10.366;2023-07-29T05:16:53;17.20;99.90
20432;DHT22;10375;49.136;10.366;2023-07-29T05:19:20;17.20;99.90
20432;DHT22;10375;49.136;10.366;2023-07-29T05:21:47;17.10;99.90
20432;DHT22;10375;49.136;10.366;2023-07-29T05:24:14;17.10;99.90
20432;DHT22;10375;49.136;10.366;2023-07-29T05:26:41;17.10;99.90
20432;DHT22;10375;49.136;10.366;2023-07-29T05:29:08;17.10;99.90
20432;DHT22;10375;49.136;10.366;2023-07-29T05:31:35;17.20;99.90
20432;DHT22;10375;49.136;10.366;2023-07-29T05:34:02;17.20;99.90
20432;DHT22;10375;49.136;10.366;2023-07-29T05:36:29;17.10;99.90
20432;DHT22;10375;49.136;10.366;2023-07-29T05:38:56;17.00;99.90
20432;DHT22;10375;49.136;10.366;2023-07-29T05:41:23;17.00;99.90
20432;DHT22;10375;49.136;10.366;2023-07-29T05:43:50;16.90;99.90
20432;DHT22;10375;49.136;10.366;2023-07-29T05:46:17;16.90;99.90
20432;DHT22;10375;49.136;10.366;2023-07-29T05:48:44;16.90;99.90
20432;DHT22;10375;49.136;10.366;2023-07-29T05:51:11;17.00;99.90
20432;DHT22;10375;49.136;10.366;2023-07-29T05:53:38;17.10;99.90
20432;DHT22;10375;49.136;10.366;2023-07-29T05:56:06;17.10;99.90
20432;DHT22;10375;49.136;10.366;2023-07-29T05:58:33;17.10;99.90
20432;DHT22;10375;49.136;10.366;2023-07-29T06:01:00;17.10;99.90
20432;DHT22;10375;49.136;10.366;2023-07-29T06:03:27;17.10;99.90
20432;DHT22;10375;49.136;10.366;2023-07-29T06:05:54;17.10;99.90
20432;DHT22;10375;49.136;10.366;2023-07-29T06:08:21;17.10;99.90
20432;DHT22;10375;49.136;10.366;2023-07-29T06:10:48;17.20;99.90
20432;DHT22;10375;49.136;10.366;2023-07-29T06:13:16;17.20;99.90
20432;DHT22;10375;49.136;10.366;2023-07-29T06:15:43;17.20;99.90
20432;DHT22;10375;49.136;10.366;2023-07-29T06:18:10;17.20;99.90
20432;DHT22;10375;49.136;10.366;2023-07-29T06:20:37;17.30;99.90
20432;DHT22;10375;49.136;10.366;2023-07-29T06:23:04;17.30;99.90
20432;DHT22;10375;49.136;10.366;2023-07-29T06:25:31;17.30;99.90
20432;DHT22;10375;49.136;10.366;2023-07-29T06:27:58;17.40;99.90
20432;DHT22;10375;49.136;10.366;2023-07-29T06:30:25;17.40;99.90
20432;DHT22;10375;49.136;10.366;2023-07-29T06:32:53;17.50;99.90
20432;DHT22;10375;49.136;10.366;2023-07-29T06:35:20;17.70;99.90
20432;DHT22;10375;49.136;10.366;2023-07-29T06:37:47;17.90;99.90
20432;DHT22;10375;49.136;10.366;2023-07-29T06:40:14;18.20;99.90
20432;DHT22;10375;49.136;10.366;2023-07-29T06:42:41;18.50;99.90
20432;DHT22;10375;49.136;10.366;2023-07-29T06:45:12;18.80;99.90
20432;DHT22;10375;49.136;10.366;2023-07-29T06:47:39;19.00;99.90
20432;DHT22;10375;49.136;10.366;2023-07-29T06:50:06;19.00;99.90
20432;DHT22;10375;49.136;10.366;2023-07-29T06:52:34;19.10;99.90
20432;DHT22;10375;49.136;10.366;2023-07-29T06:55:01;19.10;99.90
20432;DHT22;10375;49.136;10.366;2023-07-29T06:57:28;19.30;99.90
20432;DHT22;10375;49.136;10.366;2023-07-29T06:59:55;19.70;99.90
20432;DHT22;10375;49.136;10.366;2023-07-29T07:02:22;20.60;99.90
20432;DHT22;10375;49.136;10.366;2023-07-29T07:04:49;22.00;99.90
20432;DHT22;10375;49.136;10.366;2023-07-29T07:07:16;23.40;99.90
20432;DHT22;10375;49.136;10.366;2023-07-29T07:09:43;24.00;99.90
20432;DHT22;10375;49.136;10.366;2023-07-29T07:12:10;23.90;99.90
20432;DHT22;10375;49.136;10.366;2023-07-29T07:14:38;23.20;99.90
20432;DHT22;10375;49.136;10.366;2023-07-29T07:17:05;22.50;99.90
20432;DHT22;10375;49.136;10.366;2023-07-29T07:19:32;21.90;99.90
20432;DHT22;10375;49.136;10.366;2023-07-29T07:21:59;21.30;99.90
20432;DHT22;10375;49.136;10.366;2023-07-29T07:24:26;20.90;99.90
20432;DHT22;10375;49.136;10.366;2023-07-29T07:26:53;20.60;99.90
20432;DHT22;10375;49.136;10.366;2023-07-29T07:29:20;20.40;99.90
20432;DHT22;10375;49.136;10.366;2023-07-29T07:31:52;20.20;99.90
20432;DHT22;10375;49.136;10.366;2023-07-29T07:34:20;20.00;99.90
20432;DHT22;10375;49.136;10.366;2023-07-29T07:36:47;20.00;99.90
20432;DHT22;10375;49.136;10.366;2023-07-29T07:39:15;20.10;99.90
20432;DHT22;10375;49.136;10.366;2023-07-29T07:41:42;20.60;99.90
20432;DHT22;10375;49.136;10.366;2023-07-29T07:44:09;21.30;99.90
20432;DHT22;10375;49.136;10.366;2023-07-29T07:46:37;21.70;99.90
20432;DHT22;10375;49.136;10.366;2023-07-29T07:49:05;22.20;99.90
20432;DHT22;10375;49.136;10.366;2023-07-29T07:51:32;22.20;99.90
20432;DHT22;10375;49.136;10.366;2023-07-29T07:53:59;21.90;99.90
20432;DHT22;10375;49.136;10.366;2023-07-29T07:56:26;21.60;99.90
20432;DHT22;10375;49.136;10.366;2023-07-29T07:58:53;21.50;99.90
20432;DHT22;10375;49.136;10.366;2023-07-29T08:01:20;21.40;99.90
20432;DHT22;10375;49.136;10.366;2023-07-29T08:03:47;21.50;99.90
20432;DHT22;10375;49.136;10.366;2023-07-29T08:06:15;21.60;99.90
20432;DHT22;10375;49.136;10.366;2023-07-29T08:08:42;21.50;99.90
20432;DHT22;10375;49.136;10.366;2023-07-29T08:11:09;21.40;99.90
20432;DHT22;10375;49.136;10.366;2023-07-29T08:13:36;21.30;99.90
20432;DHT22;10375;49.136;10.366;2023-07-29T08:16:03;21.10;99.90
20432;DHT22;10375;49.136;10.366;2023-07-29T08:18:30;20.80;99.90
20432;DHT22;10375;49.136;10.366;2023-07-29T08:20:59;20.50;99.90
20432;DHT22;10375;49.136;10.366;2023-07-29T08:23:31;20.30;99.90
20432;DHT22;10375;49.136;10.366;2023-07-29T08:26:00;20.20;99.90
20432;DHT22;10375;49.136;10.366;2023-07-29T08:28:39;20.00;99.90
20432;DHT22;10375;49.136;10.366;2023-07-29T08:31:07;19.80;99.90
20432;DHT22;10375;49.136;10.366;2023-07-29T08:33:35;19.70;99.90
20432;DHT22;10375;49.136;10.366;2023-07-29T08:36:03;19.50;99.90
20432;DHT22;10375;49.136;10.366;2023-07-29T08:38:30;19.40;99.90
20432;DHT22;10375;49.136;10.366;2023-07-29T08:41:25;19.30;99.90
20432;DHT22;10375;49.136;10.366;2023-07-29T08:44:09;19.30;99.90
20432;DHT22;10375;49.136;10.366;2023-07-29T08:46:39;19.10;99.90
20432;DHT22;10375;49.136;10.366;2023-07-29T08:49:07;19.10;99.90
20432;DHT22;10375;49.136;10.366;2023-07-29T08:51:35;19.10;99.90
20432;DHT22;10375;49.136;10.366;2023-07-29T08:54:03;19.00;99.90
20432;DHT22;10375;49.136;10.366;2023-07-29T08:56:30;19.10;99.90
20432;DHT22;10375;49.136;10.366;2023-07-29T08:58:58;19.20;99.90
20432;DHT22;10375;49.136;10.366;2023-07-29T09:01:27;19.40;99.90
20432;DHT22;10375;49.136;10.366;2023-07-29T09:03:54;19.60;99.90
20432;DHT22;10375;49.136;10.366;2023-07-29T09:06:23;19.80;99.90
20432;DHT22;10375;49.136;10.366;2023-07-29T09:08:53;20.00;99.90
20432;DHT22;10375;49.136;10.366;2023-07-29T09:11:23;20.20;99.90
20432;DHT22;10375;49.136;10.366;2023-07-29T09:13:50;20.80;99.90
20432;DHT22;10375;49.136;10.366;2023-07-29T09:16:17;21.50;99.90
20432;DHT22;10375;49.136;10.366;2023-07-29T09:18:47;21.80;99.90
20432;DHT22;10375;49.136;10.366;2023-07-29T09:21:17;22.20;99.90
20432;DHT22;10375;49.136;10.366;2023-07-29T09:23:44;23.00;99.90
20432;DHT22;10375;49.136;10.366;2023-07-29T09:26:11;23.20;99.90
20432;DHT22;10375;49.136;10.366;2023-07-29T09:28:39;22.70;99.90
20432;DHT22;10375;49.136;10.366;2023-07-29T09:31:07;22.50;99.90
20432;DHT22;10375;49.136;10.366;2023-07-29T09:33:45;22.80;99.90
20432;DHT22;10375;49.136;10.366;2023-07-29T09:36:12;23.50;99.90
20432;DHT22;10375;49.136;10.366;2023-07-29T09:38:39;23.90;99.90
20432;DHT22;10375;49.136;10.366;2023-07-29T09:41:06;24.30;99.90
20432;DHT22;10375;49.136;10.366;2023-07-29T09:43:35;24.90;99.90
20432;DHT22;10375;49.136;10.366;2023-07-29T09:46:04;25.00;99.90
20432;DHT22;10375;49.136;10.366;2023-07-29T09:48:35;24.90;99.90
20432;DHT22;10375;49.136;10.366;2023-07-29T09:51:12;24.40;99.90
20432;DHT22;10375;49.136;10.366;2023-07-29T09:53:44;24.00;99.90
20432;DHT22;10375;49.136;10.366;2023-07-29T09:56:14;24.20;99.90
20432;DHT22;10375;49.136;10.366;2023-07-29T09:58:45;24.70;99.90
20432;DHT22;10375;49.136;10.366;2023-07-29T10:01:13;24.70;99.90
20432;DHT22;10375;49.136;10.366;2023-07-29T10:03:41;24.70;99.90
20432;DHT22;10375;49.136;10.366;2023-07-29T10:06:09;25.00;99.90
20432;DHT22;10375;49.136;10.366;2023-07-29T10:08:37;25.10;99.90
20432;DHT22;10375;49.136;10.366;2023-07-29T10:11:07;24.90;99.90
20432;DHT22;10375;49.136;10.366;2023-07-29T10:13:36;25.00;99.90
20432;DHT22;10375;49.136;10.366;2023-07-29T10:16:04;25.20;99.90
20432;DHT22;10375;49.136;10.366;2023-07-29T10:18:32;25.60;99.90
20432;DHT22;10375;49.136;10.366;2023-07-29T10:21:01;25.90;99.90
20432;DHT22;10375;49.136;10.366;2023-07-29T10:23:37;25.80;99.90
20432;DHT22;10375;49.136;10.366;2023-07-29T10:26:06;25.60;99.90
20432;DHT22;10375;49.136;10.366;2023-07-29T10:28:41;25.40;99.90
20432;DHT22;10375;49.136;10.366;2023-07-29T10:31:10;25.50;99.90
20432;DHT22;10375;49.136;10.366;2023-07-29T10:33:38;25.60;99.90
20432;DHT22;10375;49.136;10.366;2023-07-29T10:36:06;25.90;99.90
20432;DHT22;10375;49.136;10.366;2023-07-29T10:38:34;26.30;99.90
20432;DHT22;10375;49.136;10.366;2023-07-29T10:41:01;26.70;99.90
20432;DHT22;10375;49.136;10.366;2023-07-29T10:43:36;26.70;99.90
20432;DHT22;10375;49.136;10.366;2023-07-29T10:46:31;26.80;99.90
20432;DHT22;10375;49.136;10.366;2023-07-29T10:49:02;26.80;99.90
20432;DHT22;10375;49.136;10.366;2023-07-29T10:51:40;26.50;99.90
20432;DHT22;10375;49.136;10.366;2023-07-29T10:54:13;26.00;99.90
20432;DHT22;10375;49.136;10.366;2023-07-29T10:56:48;25.30;99.90
20432;DHT22;10375;49.136;10.366;2023-07-29T11:01:57;24.20;99.90
20432;DHT22;10375;49.136;10.366;2023-07-29T11:04:27;23.70;99.90
20432;DHT22;10375;49.136;10.366;2023-07-29T11:09:51;22.80;99.90
20432;DHT22;10375;49.136;10.366;2023-07-29T11:17:33;21.70;99.90
20432;DHT22;10375;49.136;10.366;2023-07-29T11:20:04;21.40;99.90
20432;DHT22;10375;49.136;10.366;2023-07-29T11:22:31;21.20;99.90
20432;DHT22;10375;49.136;10.366;2023-07-29T11:25:00;21.10;99.90
20432;DHT22;10375;49.136;10.366;2023-07-29T11:27:27;20.90;99.90
20432;DHT22;10375;49.136;10.366;2023-07-29T11:29:58;20.80;99.90
20432;DHT22;10375;49.136;10.366;2023-07-29T11:32:26;20.80;99.90
20432;DHT22;10375;49.136;10.366;2023-07-29T11:34:53;20.80;99.90
20432;DHT22;10375;49.136;10.366;2023-07-29T11:37:20;20.90;99.90
20432;DHT22;10375;49.136;10.366;2023-07-29T11:39:48;21.10;99.90
20432;DHT22;10375;49.136;10.366;2023-07-29T11:42:15;21.40;99.90
20432;DHT22;10375;49.136;10.366;2023-07-29T11:44:43;21.80;99.90
20432;DHT22;10375;49.136;10.366;2023-07-29T11:47:12;22.50;99.90
20432;DHT22;10375;49.136;10.366;2023-07-29T11:49:40;23.30;99.90
20432;DHT22;10375;49.136;10.366;2023-07-29T11:52:08;23.70;99.90
20432;DHT22;10375;49.136;10.366;2023-07-29T11:54:36;24.10;99.90
20432;DHT22;10375;49.136;10.366;2023-07-29T11:57:06;24.00;99.90
20432;DHT22;10375;49.136;10.366;2023-07-29T11:59:36;24.20;99.90
20432;DHT22;10375;49.136;10.366;2023-07-29T12:02:09;24.70;99.90
20432;DHT22;10375;49.136;10.366;2023-07-29T12:04:38;24.90;99.90
20432;DHT22;10375;49.136;10.366;2023-07-29T12:07:06;24.60;99.90
20432;DHT22;10375;49.136;10.366;2023-07-29T12:09:37;24.60;99.90
20432;DHT22;10375;49.136;10.366;2023-07-29T12:12:05;24.90;99.90
20432;DHT22;10375;49.136;10.366;2023-07-29T12:14:33;25.10;99.90
20432;DHT22;10375;49.136;10.366;2023-07-29T12:17:05;25.50;99.90
20432;DHT22;10375;49.136;10.366;2023-07-29T12:19:38;25.70;99.90
20432;DHT22;10375;49.136;10.366;2023-07-29T12:22:07;25.90;99.90
20432;DHT22;10375;49.136;10.366;2023-07-29T12:24:36;26.00;99.90
20432;DHT22;10375;49.136;10.366;2023-07-29T12:27:04;26.10;99.90
20432;DHT22;10375;49.136;10.366;2023-07-29T12:29:32;26.10;99.90
20432;DHT22;10375;49.136;10.366;2023-07-29T12:32:06;26.00;99.90
20432;DHT22;10375;49.136;10.366;2023-07-29T12:34:33;25.80;99.90
20432;DHT22;10375;49.136;10.366;2023-07-29T12:37:03;25.70;99.90
20432;DHT22;10375;49.136;10.366;2023-07-29T12:39:33;25.90;99.90
20432;DHT22;10375;49.136;10.366;2023-07-29T12:42:01;26.10;99.90
20432;DHT22;10375;49.136;10.366;2023-07-29T12:44:34;26.10;99.90
20432;DHT22;10375;49.136;10.366;2023-07-29T12:47:03;25.80;99.90
20432;DHT22;10375;49.136;10.366;2023-07-29T12:49:31;25.60;99.90
20432;DHT22;10375;49.136;10.366;2023-07-29T12:51:59;25.30;99.90
20432;DHT22;10375;49.136;10.366;2023-07-29T12:54:26;25.30;99.90
20432;DHT22;10375;49.136;10.366;2023-07-29T12:56:54;25.30;99.90
20432;DHT22;10375;49.136;10.366;2023-07-29T12:59:21;25.50;99.90
20432;DHT22;10375;49.136;10.366;2023-07-29T13:01:48;25.40;99.90
20432;DHT22;10375;49.136;10.366;2023-07-29T13:04:15;25.10;99.90
20432;DHT22;10375;49.136;10.366;2023-07-29T13:06:42;25.00;99.90
20432;DHT22;10375;49.136;10.366;2023-07-29T13:09:09;25.10;99.90
20432;DHT22;10375;49.136;10.366;2023-07-29T13:11:36;25.10;99.90
20432;DHT22;10375;49.136;10.366;2023-07-29T13:14:03;25.30;99.90
20432;DHT22;10375;49.136;10.366;2023-07-29T13:16:30;25.30;99.90
20432;DHT22;10375;49.136;10.366;2023-07-29T13:18:57;25.30;99.90
20432;DHT22;10375;49.136;10.366;2023-07-29T13:21:24;25.30;99.90
20432;DHT22;10375;49.136;10.366;2023-07-29T13:23:52;25.00;99.90
20432;DHT22;10375;49.136;10.366;2023-07-29T13:26:19;24.80;99.90
20432;DHT22;10375;49.136;10.366;2023-07-29T13:28:46;24.50;99.90
20432;DHT22;10375;49.136;10.366;2023-07-29T13:31:13;24.50;99.90
20432;DHT22;10375;49.136;10.366;2023-07-29T13:33:40;24.50;99.90
20432;DHT22;10375;49.136;10.366;2023-07-29T13:36:07;24.50;99.90
20432;DHT22;10375;49.136;10.366;2023-07-29T13:38:35;24.50;99.90
20432;DHT22;10375;49.136;10.366;2023-07-29T13:41:02;24.70;99.90
20432;DHT22;10375;49.136;10.366;2023-07-29T13:43:30;25.00;99.90
20432;DHT22;10375;49.136;10.366;2023-07-29T13:45:57;25.60;99.90
20432;DHT22;10375;49.136;10.366;2023-07-29T13:48:24;25.80;99.90
20432;DHT22;10375;49.136;10.366;2023-07-29T13:50:51;25.60;99.90
20432;DHT22;10375;49.136;10.366;2023-07-29T13:53:19;25.40;99.90
20432;DHT22;10375;49.136;10.366;2023-07-29T13:55:46;25.30;99.90
20432;DHT22;10375;49.136;10.366;2023-07-29T13:58:13;25.30;99.90
20432;DHT22;10375;49.136;10.366;2023-07-29T14:00:40;25.60;99.90
20432;DHT22;10375;49.136;10.366;2023-07-29T14:03:07;25.40;99.90
20432;DHT22;10375;49.136;10.366;2023-07-29T14:05:34;25.40;99.90
20432;DHT22;10375;49.136;10.366;2023-07-29T14:08:01;25.60;99.90
20432;DHT22;10375;49.136;10.366;2023-07-29T14:10:28;25.80;99.90
20432;DHT22;10375;49.136;10.366;2023-07-29T14:12:55;25.70;99.90
20432;DHT22;10375;49.136;10.366;2023-07-29T14:15:22;25.60;99.90
20432;DHT22;10375;49.136;10.366;2023-07-29T14:17:49;25.50;99.90
20432;DHT22;10375;49.136;10.366;2023-07-29T14:20:17;25.40;99.90
20432;DHT22;10375;49.136;10.366;2023-07-29T14:22:48;25.40;99.90
20432;DHT22;10375;49.136;10.366;2023-07-29T14:25:15;25.30;99.90
20432;DHT22;10375;49.136;10.366;2023-07-29T14:27:42;25.20;99.90
20432;DHT22;10375;49.136;10.366;2023-07-29T14:30:09;25.00;99.90
20432;DHT22;10375;49.136;10.366;2023-07-29T14:32:36;25.00;99.90
20432;DHT22;10375;49.136;10.366;2023-07-29T14:35:04;25.00;99.90
20432;DHT22;10375;49.136;10.366;2023-07-29T14:37:31;25.20;99.90
20432;DHT22;10375;49.136;10.366;2023-07-29T14:39:59;25.60;99.90
20432;DHT22;10375;49.136;10.366;2023-07-29T14:42:27;25.90;99.90
20432;DHT22;10375;49.136;10.366;2023-07-29T14:44:54;26.00;99.90
20432;DHT22;10375;49.136;10.366;2023-07-29T14:47:21;26.00;99.90
20432;DHT22;10375;49.136;10.366;2023-07-29T14:49:49;25.90;99.90
20432;DHT22;10375;49.136;10.366;2023-07-29T14:52:16;25.90;99.90
20432;DHT22;10375;49.136;10.366;2023-07-29T14:54:43;26.10;99.90
20432;DHT22;10375;49.136;10.366;2023-07-29T14:57:10;26.20;99.90
20432;DHT22;10375;49.136;10.366;2023-07-29T14:59:38;26.20;99.90
20432;DHT22;10375;49.136;10.366;2023-07-29T15:02:06;26.30;99.90
20432;DHT22;10375;49.136;10.366;2023-07-29T15:04:38;26.30;99.60
20432;DHT22;10375;49.136;10.366;2023-07-29T15:07:08;26.10;99.80
20432;DHT22;10375;49.136;10.366;2023-07-29T15:09:36;26.00;98.50
20432;DHT22;10375;49.136;10.366;2023-07-29T15:12:04;25.50;99.90
20432;DHT22;10375;49.136;10.366;2023-07-29T15:14:31;25.30;99.90
20432;DHT22;10375;49.136;10.366;2023-07-29T15:16:58;25.40;99.90
20432;DHT22;10375;49.136;10.366;2023-07-29T15:19:25;25.50;99.20
20432;DHT22;10375;49.136;10.366;2023-07-29T15:21:52;25.70;99.90
20432;DHT22;10375;49.136;10.366;2023-07-29T15:24:19;25.70;99.90
20432;DHT22;10375;49.136;10.366;2023-07-29T15:26:46;25.60;99.20
20432;DHT22;10375;49.136;10.366;2023-07-29T15:29:14;25.70;99.70
20432;DHT22;10375;49.136;10.366;2023-07-29T15:31:41;25.70;99.10
20432;DHT22;10375;49.136;10.366;2023-07-29T15:34:08;25.70;97.20
20432;DHT22;10375;49.136;10.366;2023-07-29T15:36:35;25.60;98.20
20432;DHT22;10375;49.136;10.366;2023-07-29T15:39:03;25.60;97.00